Scottsville, KY (42164)

7:35 AM CDT on July 27, 2016 (GMT -0500)
Halifax | | Change Station

Elev 741 ft 36.84 °N, 86.24 °W | Updated 9 minutes ago

Partly Cloudy
Partly Cloudy
76.3 °F
Feels Like 76 °F
N
3.7
Wind Variable Wind from SW

Today
High -- | Low -- °F
--% Chance of Precip.
Yesterday
High -- | Low -- °F
Precip. -- in
Pressure 30.00 in
Visibility 6.0 miles
Clouds Few 12000 ft
Heat Index 76 °F
Dew Point 74 °F
Humidity 94%
Rainfall 0.00 in
Snow Depth Not available.
5:46 AM 7:55 PM
Last Quarter, 43% visible
METAR KBWG 271153Z AUTO 00000KT 6SM BR FEW120 26/24 A3002 RMK AO2 SLP159 T02560239 10278 20250 52019
Pressure 30.00 in
Visibility 6.0 miles
Clouds Few 12000 ft
Heat Index 76 °F
Dew Point 74 °F
Humidity 94%
Rainfall 0.00 in
Snow Depth Not available.
5:46 AM 7:55 PM
Last Quarter, 43% visible
METAR KBWG 271153Z AUTO 00000KT 6SM BR FEW120 26/24 A3002 RMK AO2 SLP159 T02560239 10278 20250 52019

10-Day Weather Forecast

Almanac

Astronomy

Jul. 27, 2016 Rise Set
Actual Time
Civil Twilight
Nautical Twilight
Astronomical Twilight
Moon
Length of Visible Light
Length of Day
Tomorrow will be .
, % of the Moon is Illuminated

Today's Extremes

State Highs State Lows

Community

WunderPhotos

Upload Photos

1,927,838 photos uploaded!

WunderBlog® & News

Nearby

Air Quality

  Air Quality AQ Index Pollutant
Not available.

Snow Depth

Station Depth Elevation

Earthquake Activity

City Distance Mag. Time & Date
Minimum magnitude displayed is 2.5.

Coastal Water Temperatures

Place Temperature

Stations

Nearby Weather Stations

Station Location Temp. Windchill Dew Point Humidity Wind Precip. Elev Updated Type
                   

Watches & Warnings

There are currently no watches in effect.